Time;durP1;ratioP1;P1;durP2;ratioP2;P2;SDS_P1;SDS_P2;PMS_P1;PMS_P2;Temp;Humidity;BMP_temperature;BMP_pressure;BME280_temperature;BME280_humidity;BME280_pressure;Samples;Min_cycle;Max_cycle;Signal;HPM_P1;HPM_P2
2022/04/23 00:00:11;;;;;;;6.60;6.10;;;;;;;12.58;54.31;96792.16;8098397;29;20248;-79
2022/04/23 00:04:14;;;;;;;7.17;6.57;;;;;;;12.92;52.98;96793.16;8095992;29;20241;-79
2022/04/23 00:08:17;;;;;;;6.63;6.13;;;;;;;12.78;53.66;96790.75;8096273;29;20233;-79
2022/04/23 00:12:20;;;;;;;7.27;6.67;;;;;;;12.73;53.82;96785.88;8096628;29;20238;-78
2022/04/23 00:16:24;;;;;;;7.70;6.57;;;;;;;12.49;54.46;96780.69;8096376;29;20245;-80
2022/04/23 00:20:29;;;;;;;7.10;6.50;;;;;;;12.47;54.51;96775.59;8096198;29;20238;-79
2022/04/23 00:24:32;;;;;;;7.43;6.73;;;;;;;12.41;54.70;96788.16;8096318;29;20251;-79
2022/04/23 00:28:36;;;;;;;7.40;6.60;;;;;;;12.22;55.46;96786.00;8096126;29;20245;-79
2022/04/23 00:32:40;;;;;;;6.83;6.27;;;;;;;12.26;55.36;96788.31;8095877;29;20244;-79
2022/04/23 00:36:43;;;;;;;6.63;6.03;;;;;;;12.39;55.06;96777.88;8095575;29;20556;-79
2022/04/23 00:40:46;;;;;;;7.20;6.50;;;;;;;12.38;54.88;96784.00;8095901;29;20237;-79
2022/04/23 00:44:49;;;;;;;7.30;6.70;;;;;;;12.25;55.30;96778.84;8095826;29;20242;-79
2022/04/23 00:48:53;;;;;;;6.40;5.90;;;;;;;12.44;54.74;96780.16;8095412;29;20253;-80
2022/04/23 00:52:59;;;;;;;6.60;5.93;;;;;;;12.56;54.24;96778.47;8095438;29;20253;-79
2022/04/23 00:57:02;;;;;;;6.43;5.93;;;;;;;12.38;54.61;96780.59;8095318;29;20253;-79
2022/04/23 01:01:05;;;;;;;6.50;6.00;;;;;;;12.52;54.11;96783.84;8095154;29;20273;-79
2022/04/23 01:05:10;;;;;;;6.50;6.00;;;;;;;12.35;54.71;96793.78;8095000;29;20253;-79
2022/04/23 01:09:13;;;;;;;6.80;6.20;;;;;;;12.23;55.15;96792.88;8095021;29;20241;-79
2022/04/23 01:13:17;;;;;;;7.83;5.73;;;;;;;12.41;54.52;96791.56;8093700;29;20246;-79
2022/04/23 01:17:20;;;;;;;6.63;6.03;;;;;;;12.39;54.47;96785.66;8094294;29;20242;-78
2022/04/23 01:21:24;;;;;;;6.93;6.30;;;;;;;12.36;54.50;96788.50;8094426;29;20268;-80
2022/04/23 01:25:28;;;;;;;6.90;6.30;;;;;;;12.40;54.10;96779.53;8094557;29;20245;-79
2022/04/23 01:29:31;;;;;;;6.70;6.10;;;;;;;12.39;54.17;96792.63;8094331;29;20245;-79
2022/04/23 01:33:34;;;;;;;6.93;6.33;;;;;;;12.36;53.92;96785.06;8094084;29;20304;-79
2022/04/23 01:37:39;;;;;;;7.10;6.50;;;;;;;12.22;54.36;96784.28;8093964;29;20260;-79
2022/04/23 01:41:41;;;;;;;6.73;6.13;;;;;;;12.44;53.92;96787.94;8093832;29;20233;-79
2022/04/23 01:45:45;;;;;;;6.40;5.90;;;;;;;12.29;54.29;96790.66;8093645;29;20241;-79
2022/04/23 01:49:48;;;;;;;6.80;6.10;;;;;;;12.54;53.21;96791.53;8093614;29;20237;-79
2022/04/23 01:53:52;;;;;;;6.20;5.70;;;;;;;12.40;53.50;96802.91;8093089;29;20578;-79
2022/04/23 01:57:55;;;;;;;6.90;6.30;;;;;;;12.48;53.56;96804.97;8093161;29;20241;-79
2022/04/23 02:01:58;;;;;;;6.47;5.87;;;;;;;12.27;53.82;96796.91;8093223;29;20234;-79
2022/04/23 02:06:02;;;;;;;6.47;5.97;;;;;;;12.18;54.30;96800.16;8093059;29;20300;-79
2022/04/23 02:10:08;;;;;;;6.20;5.60;;;;;;;12.36;53.49;96800.66;8093029;29;20574;-79
2022/04/23 02:14:11;;;;;;;6.50;5.97;;;;;;;12.31;53.72;96806.16;8092898;29;20253;-79
2022/04/23 02:18:14;;;;;;;7.17;6.53;;;;;;;12.22;54.04;96809.38;8092899;29;20438;-79
2022/04/23 02:22:17;;;;;;;6.60;5.90;;;;;;;12.59;52.65;96804.22;8092074;29;20592;-77
2022/04/23 02:26:21;;;;;;;6.83;6.13;;;;;;;12.48;52.86;96810.16;8092743;29;20249;-78
2022/04/23 02:30:24;;;;;;;6.90;6.30;;;;;;;12.53;52.67;96805.47;8092501;29;20242;-79
2022/04/23 02:34:27;;;;;;;6.33;5.77;;;;;;;12.40;53.29;96808.09;8092368;29;20241;-79
2022/04/23 02:38:30;;;;;;;6.37;5.77;;;;;;;12.54;52.73;96804.53;8092872;29;20545;-79
2022/04/23 02:42:36;;;;;;;6.50;5.90;;;;;;;12.53;52.60;96802.88;8092373;29;20437;-79
2022/04/23 02:46:38;;;;;;;6.20;5.70;;;;;;;12.57;52.53;96799.13;8092468;29;20238;-79
2022/04/23 02:50:41;;;;;;;6.57;6.03;;;;;;;12.46;52.79;96799.06;8092406;29;20237;-78
2022/04/23 02:54:45;;;;;;;7.63;6.07;;;;;;;12.64;52.53;96797.75;8091834;29;20241;-79
2022/04/23 02:58:49;;;;;;;6.70;6.03;;;;;;;12.62;52.12;96802.25;8092285;29;20241;-79
2022/04/23 03:02:52;;;;;;;7.03;6.27;;;;;;;12.59;52.10;96805.03;8092109;29;20536;-79
2022/04/23 03:06:56;;;;;;;6.80;5.90;;;;;;;12.67;51.96;96797.53;8091580;29;20237;-79
2022/04/23 03:11:00;;;;;;;7.10;6.40;;;;;;;12.64;52.14;96810.75;8092008;29;20237;-79
2022/04/23 03:15:05;;;;;;;7.50;6.80;;;;;;;12.65;52.13;96798.59;8091794;29;20324;-79
2022/04/23 03:19:08;;;;;;;6.70;6.00;;;;;;;12.71;51.87;96806.75;8091927;29;20566;-78
2022/04/23 03:23:11;;;;;;;7.10;6.50;;;;;;;12.68;51.85;96806.16;8091792;29;20248;-79
2022/04/23 03:27:15;;;;;;;7.80;7.00;;;;;;;12.46;52.56;96802.47;8091809;29;20249;-78
2022/04/23 03:31:19;;;;;;;8.70;7.90;;;;;;;12.35;52.78;96809.34;8091579;29;20237;-78
2022/04/23 03:35:23;;;;;;;8.90;8.10;;;;;;;12.22;52.98;96807.63;8093875;29;20241;-79
2022/04/23 03:39:26;;;;;;;9.27;8.47;;;;;;;12.09;53.70;96805.06;8097705;29;20245;-79
2022/04/23 03:43:30;;;;;;;10.30;9.40;;;;;;;11.81;54.35;96800.88;8097521;29;20555;-79
2022/04/23 03:47:34;;;;;;;10.20;9.30;;;;;;;12.05;53.69;96801.00;8097485;29;20552;-79
2022/04/23 03:51:37;;;;;;;10.40;9.50;;;;;;;12.09;53.42;96796.44;8097191;29;20260;-79
2022/04/23 03:55:40;;;;;;;11.17;10.07;;;;;;;11.92;54.43;96803.59;8096809;29;20247;-79
2022/04/23 03:59:43;;;;;;;11.30;10.27;;;;;;;11.88;53.96;96798.69;8097119;29;20564;-79
2022/04/23 04:03:47;;;;;;;11.57;10.47;;;;;;;12.15;53.06;96798.59;8115110;29;20263;-77
2022/04/23 04:07:51;;;;;;;11.70;10.70;;;;;;;12.08;53.50;96802.56;8127776;29;20304;-78
2022/04/23 04:12:03;;;;;;;13.53;11.83;;;;;;;11.92;53.89;96797.59;8127765;29;20350;-78
2022/04/23 04:16:05;;;;;;;12.33;11.13;;;;;;;11.93;53.78;96796.66;8127512;29;20256;-78
2022/04/23 04:20:11;;;;;;;12.87;11.67;;;;;;;11.97;54.00;96798.09;8126380;29;20300;-78
2022/04/23 04:24:16;;;;;;;12.67;11.47;;;;;;;12.04;53.69;96794.16;8126318;29;20293;-78
2022/04/23 04:28:19;;;;;;;13.23;12.03;;;;;;;12.24;53.18;96789.34;8125918;29;20233;-77
2022/04/23 04:32:22;;;;;;;14.87;13.37;;;;;;;11.75;55.08;96790.94;8126056;29;20247;-78
2022/04/23 04:36:26;;;;;;;16.10;14.60;;;;;;;11.99;54.32;96796.22;8126103;29;20470;-78
2022/04/23 04:40:30;;;;;;;16.30;14.70;;;;;;;11.82;55.13;96792.19;8125998;29;20240;-78
2022/04/23 04:44:33;;;;;;;17.80;16.00;;;;;;;11.95;54.88;96792.19;8125759;29;20245;-78
2022/04/23 04:48:36;;;;;;;18.23;16.50;;;;;;;11.82;55.61;96788.72;8125811;29;20329;-78
2022/04/23 04:52:41;;;;;;;16.93;15.43;;;;;;;11.85;55.65;96794.53;8125570;29;20241;-79
2022/04/23 04:56:44;;;;;;;18.27;16.63;;;;;;;11.84;55.53;96805.03;8125328;29;20274;-78
2022/04/23 05:00:47;;;;;;;17.80;16.13;;;;;;;11.81;55.91;96811.25;8125373;29;20245;-78
2022/04/23 05:04:50;;;;;;;17.07;15.47;;;;;;;12.27;54.59;96813.31;8098723;29;20248;-78
2022/04/23 05:08:54;;;;;;;18.33;16.70;;;;;;;12.17;54.98;96816.66;8094269;29;20248;-78
2022/04/23 05:12:57;;;;;;;19.53;17.63;;;;;;;12.19;54.99;96807.84;8093664;29;20237;-78
2022/04/23 05:17:00;;;;;;;21.47;19.37;;;;;;;11.98;55.73;96812.75;8093891;29;20241;-77
2022/04/23 05:21:04;;;;;;;19.33;17.53;;;;;;;12.04;55.58;96807.13;8093891;29;20241;-77
2022/04/23 05:25:09;;;;;;;19.57;17.77;;;;;;;12.20;55.29;96811.25;8093659;29;20242;-77
2022/04/23 05:29:13;;;;;;;20.20;18.30;;;;;;;12.19;55.49;96815.63;8093595;29;20251;-77
2022/04/23 05:33:16;;;;;;;20.27;18.27;;;;;;;12.10;55.77;96801.50;8093681;29;20249;-77
2022/04/23 05:37:19;;;;;;;20.80;17.97;;;;;;;12.16;55.38;96808.03;8062463;29;20242;-77
2022/04/23 05:41:24;;;;;;;20.67;18.77;;;;;;;12.08;55.94;96812.94;8062696;29;20548;-78
2022/04/23 05:45:27;;;;;;;19.57;17.73;;;;;;;12.22;55.59;96817.16;8062388;29;20254;-77
2022/04/23 05:49:30;;;;;;;21.63;19.43;;;;;;;12.17;56.08;96814.91;8062372;29;20245;-77
2022/04/23 05:53:53;;;;;;;20.70;18.63;;;;;;;12.43;55.32;96809.66;8062027;29;20238;-77
2022/04/23 05:57:57;;;;;;;20.53;18.63;;;;;;;12.59;54.77;96801.63;8061429;29;20285;-77
2022/04/23 06:02:01;;;;;;;20.67;18.77;;;;;;;12.26;55.86;96816.88;8062007;29;20241;-77
2022/04/23 06:06:05;;;;;;;21.03;19.00;;;;;;;12.24;56.35;96816.13;8062141;29;20250;-77
2022/04/23 06:10:09;;;;;;;20.80;18.73;;;;;;;12.24;56.33;96810.09;8061877;29;20456;-77
2022/04/23 06:14:13;;;;;;;20.60;18.60;;;;;;;12.24;56.24;96821.34;8061833;29;20329;-77
2022/04/23 06:18:16;;;;;;;21.93;19.70;;;;;;;12.39;55.91;96814.22;8061802;29;20250;-77
2022/04/23 06:22:19;;;;;;;21.73;19.73;;;;;;;12.51;55.70;96810.78;8092240;29;20237;-77
2022/04/23 06:26:22;;;;;;;23.10;20.90;;;;;;;12.43;55.94;96810.50;8092363;29;20249;-78
2022/04/23 06:30:26;;;;;;;22.60;20.50;;;;;;;12.54;55.65;96801.94;8113380;29;20240;-77
2022/04/23 06:34:30;;;;;;;21.33;19.10;;;;;;;12.99;54.52;96806.56;8123105;29;20517;-74
2022/04/23 06:38:33;;;;;;;21.13;19.13;;;;;;;12.96;54.49;96812.78;8123364;29;20252;-74
2022/04/23 06:42:36;;;;;;;20.90;18.83;;;;;;;12.81;54.88;96811.28;8123280;29;20289;-74
2022/04/23 06:46:40;;;;;;;20.23;18.13;;;;;;;13.05;54.73;96812.13;8123123;29;20245;-74
2022/04/23 06:50:43;;;;;;;19.77;17.87;;;;;;;13.51;52.98;96800.13;8123308;29;20244;-74
2022/04/23 06:54:46;;;;;;;19.97;17.83;;;;;;;13.98;52.97;96798.31;8103394;29;20251;-75
2022/04/23 06:58:49;;;;;;;19.87;17.53;;;;;;;14.69;50.54;96802.44;8074352;29;20267;-74
2022/04/23 07:02:53;;;;;;;19.63;17.53;;;;;;;14.92;49.49;96805.81;8079985;29;20241;-74
2022/04/23 07:06:57;;;;;;;20.07;17.90;;;;;;;14.57;50.37;96812.06;8089701;29;20237;-73
2022/04/23 07:10:59;;;;;;;19.43;17.47;;;;;;;14.32;50.69;96813.09;8067877;29;20304;-74
2022/04/23 07:15:03;;;;;;;18.97;16.47;;;;;;;14.38;50.86;96812.63;8090891;29;20245;-73
2022/04/23 07:19:09;;;;;;;17.70;16.00;;;;;;;14.40;50.81;96810.75;8097244;29;20418;-74
2022/04/23 07:27:32;;;;;;;14.90;13.30;;;;;;;14.56;49.95;96807.75;8096808;29;20289;-74
2022/04/23 07:31:36;;;;;;;14.93;13.63;;;;;;;14.85;48.53;96810.69;8097298;29;20249;-74
2022/04/23 07:40:05;;;;;;;14.13;12.83;;;;;;;15.13;47.90;96821.50;8096857;29;20237;-74
2022/04/23 07:44:08;;;;;;;14.57;13.07;;;;;;;14.88;48.37;96805.22;8096607;29;20237;-73
2022/04/23 07:48:11;;;;;;;15.27;13.87;;;;;;;14.86;48.88;96813.16;8096179;29;20249;-74
2022/04/23 07:52:16;;;;;;;15.07;13.53;;;;;;;14.59;49.14;96818.78;8096286;29;20249;-74
2022/04/23 07:56:19;;;;;;;17.00;14.37;;;;;;;14.73;49.16;96820.28;8096254;29;20449;-73
2022/04/23 08:00:22;;;;;;;17.83;14.77;;;;;;;14.16;50.38;96811.69;8096119;29;20238;-77
2022/04/23 08:04:25;;;;;;;20.07;17.10;;;;;;;14.73;48.81;96809.88;8112700;29;20245;-74
2022/04/23 08:08:29;;;;;;;17.67;15.97;;;;;;;14.58;48.85;96819.75;8127247;29;20242;-76
2022/04/23 08:12:34;;;;;;;14.40;12.93;;;;;;;14.39;49.63;96809.06;8126621;29;20240;-74
2022/04/23 08:16:37;;;;;;;15.50;13.97;;;;;;;13.98;50.21;96808.72;8126397;29;20256;-74
2022/04/23 08:20:41;;;;;;;15.67;14.17;;;;;;;14.05;49.54;96804.72;8126018;29;20237;-75
2022/04/23 08:24:45;;;;;;;16.17;14.67;;;;;;;14.14;49.91;96810.97;8126582;29;20275;-75
2022/04/23 08:33:08;;;;;;;27.43;18.37;;;;;;;14.16;49.97;96806.47;8126525;29;20566;-74
2022/04/23 08:37:12;;;;;;;19.63;17.60;;;;;;;13.84;51.10;96807.19;8126432;29;20255;-73
2022/04/23 08:41:17;;;;;;;21.43;19.23;;;;;;;14.03;50.29;96800.56;8126435;29;20574;-74
2022/04/23 08:45:20;;;;;;;21.13;19.03;;;;;;;13.74;51.08;96802.78;8094560;29;20248;-74
2022/04/23 08:49:29;;;;;;;26.50;23.87;;;;;;;13.68;51.81;96804.06;8094812;29;20248;-74
2022/04/23 08:53:32;;;;;;;29.80;26.23;;;;;;;13.62;52.47;96807.16;8090979;29;20382;-74
2022/04/23 08:57:37;;;;;;;29.63;26.57;;;;;;;13.76;52.29;96806.09;8063881;29;20261;-73
2022/04/23 09:01:40;;;;;;;30.20;27.10;;;;;;;13.92;51.84;96803.16;8063630;29;20245;-73
2022/04/23 09:05:44;;;;;;;31.10;27.50;;;;;;;14.03;51.01;96798.81;8062494;29;20552;-73
2022/04/23 09:09:50;;;;;;;30.17;27.00;;;;;;;13.74;51.61;96805.38;8063562;29;20253;-73
2022/04/23 09:13:55;;;;;;;31.13;27.13;;;;;;;13.68;51.94;96817.91;8063369;29;20245;-73
2022/04/23 09:26:43;;;;;;;28.80;24.43;;;;;;;14.14;50.44;96812.75;8063170;29;20250;-73
2022/04/23 09:30:49;;;;;;;25.87;23.27;;;;;;;14.08;50.35;96806.25;8063082;29;20238;-73
2022/04/23 09:35:04;;;;;;;27.07;24.33;;;;;;;14.32;50.07;96806.13;8061789;29;20297;-73
2022/04/23 09:39:07;;;;;;;25.80;23.20;;;;;;;14.11;50.21;96811.22;8062567;29;20246;-73
2022/04/23 09:43:10;;;;;;;25.20;22.50;;;;;;;14.27;49.64;96813.47;8062646;29;20560;-73
2022/04/23 09:47:29;;;;;;;24.33;21.77;;;;;;;14.18;49.61;96808.97;8062473;29;20446;-73
2022/04/23 09:51:32;;;;;;;23.10;20.60;;;;;;;14.72;48.89;96807.41;8092941;29;20291;-75
2022/04/23 09:55:35;;;;;;;24.57;21.97;;;;;;;14.89;48.10;96813.84;8092540;29;20249;-73
2022/04/23 09:59:38;;;;;;;23.20;20.73;;;;;;;14.70;48.40;96817.94;8092495;29;20252;-74
2022/04/23 10:03:46;;;;;;;22.33;19.87;;;;;;;14.46;48.25;96818.88;8092457;29;20419;-74
2022/04/23 10:07:51;;;;;;;18.77;16.87;;;;;;;14.65;47.34;96814.88;8092608;29;20265;-74
2022/04/23 10:11:58;;;;;;;20.63;17.50;;;;;;;14.79;47.36;96813.78;8092680;29;20244;-73
2022/04/23 10:16:03;;;;;;;20.03;17.93;;;;;;;15.25;46.59;96804.88;8092161;29;20242;-73
2022/04/23 10:20:13;;;;;;;19.93;17.30;;;;;;;15.22;46.39;96808.53;8092218;29;20245;-73
2022/04/23 10:24:19;;;;;;;18.67;16.77;;;;;;;14.82;46.37;96813.53;8092265;29;20305;-73
2022/04/23 10:28:22;;;;;;;19.23;16.43;;;;;;;14.84;46.30;96806.41;8091609;29;20544;-73
2022/04/23 10:32:25;;;;;;;18.43;16.47;;;;;;;14.80;46.74;96805.00;8091921;29;20245;-72
2022/04/23 10:36:29;;;;;;;16.77;14.83;;;;;;;14.73;46.82;96799.44;8092020;29;20241;-73
2022/04/23 10:40:36;;;;;;;19.97;16.40;;;;;;;14.55;47.22;96804.31;8091702;29;20449;-74
2022/04/23 10:44:39;;;;;;;17.50;15.63;;;;;;;15.05;46.90;96793.44;8091651;29;20245;-74
2022/04/23 10:48:45;;;;;;;16.63;14.90;;;;;;;15.17;45.96;96795.06;8092016;29;20257;-74
2022/04/23 10:52:51;;;;;;;15.20;13.77;;;;;;;15.25;45.17;96802.25;8091490;29;20525;-73
2022/04/23 10:56:54;;;;;;;12.47;11.27;;;;;;;15.19;45.26;96785.34;8091543;29;20237;-74
2022/04/23 11:01:20;;;;;;;14.30;12.23;;;;;;;14.94;45.47;96786.47;8091832;29;20301;-73
2022/04/23 11:14:45;;;;;;;36.93;31.63;;;;;;;15.41;44.86;96781.75;8091369;29;20238;-74
2022/04/23 11:18:50;;;;;;;19.47;15.07;;;;;;;15.39;45.22;96777.63;8091904;29;20252;-74
2022/04/23 11:22:53;;;;;;;17.23;15.53;;;;;;;15.41;45.13;96771.31;8092216;29;20233;-71
2022/04/23 11:26:59;;;;;;;17.93;14.03;;;;;;;15.38;44.71;96779.44;8092175;29;20237;-74
2022/04/23 11:31:14;;;;;;;16.00;13.67;;;;;;;15.30;44.68;96770.56;8092162;29;20241;-74
2022/04/23 11:35:17;;;;;;;15.63;14.03;;;;;;;15.28;44.76;96775.91;8091691;29;20237;-73
2022/04/23 11:39:27;;;;;;;14.63;13.00;;;;;;;15.67;44.21;96770.09;8091813;29;20245;-73
2022/04/23 11:43:34;;;;;;;17.13;15.40;;;;;;;15.66;43.95;96764.06;8091549;29;20242;-75
2022/04/23 11:47:37;;;;;;;17.30;14.73;;;;;;;15.97;43.80;96770.19;8091725;29;20253;-75
2022/04/23 11:51:41;;;;;;;17.67;15.87;;;;;;;15.95;43.98;96768.63;8091675;29;20536;-74
2022/04/23 11:55:49;;;;;;;15.53;13.93;;;;;;;16.37;43.34;96752.84;8092620;29;20308;-74
2022/04/23 12:00:00;;;;;;;15.97;14.37;;;;;;;15.85;43.56;96770.38;8096815;29;20556;-72
2022/04/23 12:04:03;;;;;;;14.43;12.77;;;;;;;15.79;43.77;96759.50;8096617;29;20241;-71
2022/04/23 12:08:07;;;;;;;14.77;13.27;;;;;;;15.45;44.47;96761.47;8096522;29;20337;-72
2022/04/23 12:12:10;;;;;;;14.47;12.97;;;;;;;15.84;44.11;96756.50;8096557;29;20241;-71
2022/04/23 12:16:17;;;;;;;14.17;12.87;;;;;;;15.82;43.78;96750.56;8096373;29;20248;-72
2022/04/23 12:20:21;;;;;;;16.27;14.57;;;;;;;16.09;43.10;96746.56;8095601;29;20544;-71
2022/04/23 12:24:31;;;;;;;14.93;13.43;;;;;;;16.20;43.11;96736.84;8096718;29;20245;-71
2022/04/23 12:41:56;;;;;;;12.97;11.77;;;;;;;16.48;42.50;96715.31;8095892;29;20241;-72
2022/04/23 12:46:07;;;;;;;15.13;11.90;;;;;;;16.84;41.47;96719.09;8095763;29;20241;-72
2022/04/23 12:50:27;;;;;;;13.77;12.33;;;;;;;17.01;42.11;96709.72;8095181;29;20245;-72
2022/04/23 12:54:30;;;;;;;13.67;12.37;;;;;;;16.89;41.53;96703.81;8094842;29;20245;-72
2022/04/23 12:58:33;;;;;;;12.73;11.53;;;;;;;17.03;41.55;96691.28;8095224;29;20245;-76
2022/04/23 13:02:36;;;;;;;13.33;12.03;;;;;;;16.83;41.90;96699.16;8094973;29;20250;-73
2022/04/23 13:11:24;;;;;;;11.37;10.27;;;;;;;16.69;41.96;96681.22;8070548;29;20241;-74
2022/04/23 13:15:24;;;;;;;12.87;11.13;;;;;;;16.61;42.13;96677.50;8094133;29;20239;-75
2022/04/23 13:19:27;;;;;;;14.20;11.23;;;;;;;16.49;42.27;96685.63;8094295;29;20256;-74
2022/04/23 13:23:32;;;;;;;11.57;10.47;;;;;;;16.55;42.14;96677.25;8094524;29;20241;-74
2022/04/23 13:27:36;;;;;;;13.40;10.90;;;;;;;16.74;42.60;96677.22;8094334;29;20252;-73
2022/04/23 13:31:40;;;;;;;13.73;11.70;;;;;;;16.54;42.26;96681.63;8094435;29;20241;-73
2022/04/23 13:35:43;;;;;;;13.43;12.07;;;;;;;16.34;42.80;96672.13;8094059;29;20566;-73
2022/04/23 13:39:47;;;;;;;13.83;12.43;;;;;;;16.00;43.41;96675.06;8093782;29;20552;-72
2022/04/23 13:43:51;;;;;;;15.60;12.07;;;;;;;16.07;43.65;96659.69;8093878;29;20433;-72
2022/04/23 13:47:54;;;;;;;13.67;12.27;;;;;;;16.32;43.27;96655.78;8093860;29;20248;-73
2022/04/23 13:51:57;;;;;;;17.20;12.00;;;;;;;16.54;44.26;96652.88;8093391;29;20248;-74
2022/04/23 13:56:01;;;;;;;13.87;12.53;;;;;;;16.46;42.98;96655.34;8114977;29;20551;-75
2022/04/23 14:00:05;;;;;;;12.50;11.30;;;;;;;16.79;41.94;96645.44;8124469;29;20563;-76
2022/04/23 14:12:51;;;;;;;12.30;11.17;;;;;;;16.70;42.59;96641.06;8124125;29;20247;-75
2022/04/23 14:16:53;;;;;;;13.03;11.63;;;;;;;16.58;44.07;96628.13;8123894;29;20446;-76
2022/04/23 14:20:56;;;;;;;14.47;11.30;;;;;;;16.73;42.85;96633.75;8094307;29;20252;-77
2022/04/23 14:24:59;;;;;;;12.73;11.43;;;;;;;16.93;42.00;96625.94;8095223;29;20433;-74
2022/04/23 14:29:05;;;;;;;12.67;11.47;;;;;;;16.52;42.39;96617.41;8123848;29;20252;-76
2022/04/23 14:33:08;;;;;;;20.47;16.07;;;;;;;16.49;43.90;96615.91;8124049;29;20249;-76
2022/04/23 14:37:11;;;;;;;11.73;10.47;;;;;;;16.33;43.21;96608.59;8123683;29;20244;-76
2022/04/23 14:41:14;;;;;;;11.03;9.93;;;;;;;16.30;42.97;96606.25;8123565;29;20249;-78
2022/04/23 14:45:19;;;;;;;16.13;11.23;;;;;;;16.64;43.66;96599.78;8122843;29;20244;-73
2022/04/23 14:49:22;;;;;;;14.17;10.07;;;;;;;16.15;42.92;96600.63;8123266;29;20255;-76
2022/04/23 14:53:25;;;;;;;12.20;10.30;;;;;;;16.41;43.11;96595.69;8121890;29;20270;-76
2022/04/23 14:57:28;;;;;;;12.67;11.37;;;;;;;16.64;44.14;96584.09;8092053;29;20241;-76
2022/04/23 15:01:33;;;;;;;12.87;10.67;;;;;;;16.10;43.39;96588.94;8092048;29;20555;-75
2022/04/23 15:05:36;;;;;;;17.80;13.37;;;;;;;16.27;43.21;96583.03;8092137;29;20514;-73
2022/04/23 15:09:39;;;;;;;21.57;17.50;;;;;;;16.90;42.39;96582.56;8092078;29;20246;-74
2022/04/23 15:13:42;;;;;;;12.63;11.17;;;;;;;16.80;42.68;96584.34;8092108;29;20245;-74
2022/04/23 15:17:47;;;;;;;14.47;11.77;;;;;;;16.90;42.63;96582.56;8092074;29;20482;-73
2022/04/23 15:21:50;;;;;;;15.30;10.30;;;;;;;16.79;41.80;96590.53;8092076;29;20245;-75
2022/04/23 15:25:53;;;;;;;10.37;9.27;;;;;;;16.67;42.04;96586.44;8092025;29;20435;-75
2022/04/23 15:29:58;;;;;;;14.47;10.10;;;;;;;16.71;42.19;96580.78;8092285;29;20245;-75
2022/04/23 15:34:03;;;;;;;11.63;9.70;;;;;;;16.46;42.83;96576.97;8097876;29;20241;-75
2022/04/23 15:38:06;;;;;;;14.23;10.70;;;;;;;16.91;42.57;96581.63;8097619;29;20558;-76
2022/04/23 15:42:12;;;;;;;9.60;8.57;;;;;;;17.05;41.53;96582.94;8097301;29;20592;-76
2022/04/23 15:46:15;;;;;;;11.53;8.53;;;;;;;16.55;41.99;96585.78;8097514;29;20249;-76
2022/04/23 15:50:19;;;;;;;11.27;9.20;;;;;;;16.65;42.29;96576.13;8089761;29;20286;-75
2022/04/23 15:54:22;;;;;;;9.10;8.20;;;;;;;16.70;42.37;96575.72;8097101;29;20245;-78
2022/04/23 15:58:26;;;;;;;9.00;8.10;;;;;;;16.52;42.40;96573.78;8097102;29;20249;-75
2022/04/23 16:02:29;;;;;;;9.07;8.20;;;;;;;16.59;42.15;96580.13;8096883;29;20586;-75
2022/04/23 16:06:34;;;;;;;11.53;8.83;;;;;;;16.41;42.31;96577.41;8097141;29;20246;-74
2022/04/23 16:10:37;;;;;;;9.13;8.23;;;;;;;16.55;41.92;96564.88;8096997;29;20548;-75
2022/04/23 16:14:40;;;;;;;9.83;8.67;;;;;;;16.59;42.07;96559.22;8096763;29;20261;-75
2022/04/23 16:19:03;;;;;;;9.00;8.10;;;;;;;16.47;42.10;96557.72;8096363;29;20252;-75
2022/04/23 16:23:07;;;;;;;9.73;7.60;;;;;;;16.39;42.53;96549.75;8096591;29;20439;-75
2022/04/23 16:27:10;;;;;;;8.47;7.00;;;;;;;16.67;42.14;96549.84;8096278;29;20424;-74
2022/04/23 16:31:13;;;;;;;8.63;7.53;;;;;;;16.37;42.32;96552.50;8096186;29;20556;-75
2022/04/23 16:35:16;;;;;;;7.80;7.10;;;;;;;16.49;42.28;96552.38;8096041;29;20252;-75
2022/04/23 16:48:02;;;;;;;9.97;7.70;;;;;;;16.54;42.37;96550.94;8095747;29;20238;-75
2022/04/23 16:52:05;;;;;;;9.40;7.77;;;;;;;16.40;42.55;96544.38;8095537;29;20242;-74
2022/04/23 16:56:10;;;;;;;9.73;7.43;;;;;;;16.27;42.45;96548.25;8095325;29;20242;-75
2022/04/23 17:00:14;;;;;;;9.40;7.87;;;;;;;16.32;42.99;96539.03;8095453;29;20249;-75
2022/04/23 17:04:17;;;;;;;12.27;7.70;;;;;;;16.31;42.99;96539.97;8094945;29;20420;-74
2022/04/23 17:08:20;;;;;;;11.30;7.73;;;;;;;16.36;42.76;96540.41;8095041;29;20256;-75
2022/04/23 17:12:25;;;;;;;8.63;7.33;;;;;;;16.30;42.76;96533.13;8094554;29;20252;-75
2022/04/23 17:16:28;;;;;;;8.53;7.47;;;;;;;15.96;43.50;96532.72;8094790;29;20249;-76
2022/04/23 17:20:31;;;;;;;9.60;7.33;;;;;;;16.01;43.02;96515.69;8094714;29;20349;-76
2022/04/23 17:24:34;;;;;;;8.00;7.10;;;;;;;15.88;43.71;96506.44;8094613;29;20241;-75
2022/04/23 17:28:39;;;;;;;12.93;8.10;;;;;;;16.03;43.45;96518.16;8094281;29;20246;-75
2022/04/23 17:32:41;;;;;;;8.03;7.23;;;;;;;16.06;43.52;96514.44;8094683;29;20234;-75
2022/04/23 17:36:50;;;;;;;8.47;7.13;;;;;;;15.96;43.55;96519.66;8094279;29;20237;-75
2022/04/23 17:40:53;;;;;;;9.73;7.27;;;;;;;15.63;43.92;96509.44;8093969;29;20241;-74
2022/04/23 17:44:58;;;;;;;7.90;7.17;;;;;;;15.89;44.02;96495.06;8094058;29;20233;-74
2022/04/23 17:49:01;;;;;;;10.50;7.67;;;;;;;15.78;43.80;96486.41;8094084;29;20296;-74
2022/04/23 17:53:04;;;;;;;8.13;7.33;;;;;;;15.68;44.30;96475.09;8093051;29;20313;-74
2022/04/23 17:57:11;;;;;;;8.87;7.33;;;;;;;15.77;44.08;96460.44;8031573;29;20429;-74
2022/04/23 18:10:03;;;;;;;6.87;6.17;;;;;;;16.08;43.45;96495.03;8031810;29;20440;-75
2022/04/23 18:14:06;;;;;;;7.57;6.50;;;;;;;15.86;43.41;96506.59;8032213;29;20249;-75
2022/04/23 18:18:11;;;;;;;10.80;7.57;;;;;;;15.71;43.90;96508.75;8040068;29;20432;-74
2022/04/23 18:22:15;;;;;;;8.40;6.77;;;;;;;15.57;44.07;96509.97;8062576;29;20252;-75
2022/04/23 18:26:17;;;;;;;11.03;7.60;;;;;;;15.39;44.34;96519.41;8046825;29;20246;-74
2022/04/23 18:30:23;;;;;;;9.27;6.57;;;;;;;15.69;43.83;96520.25;8046809;29;20441;-75
2022/04/23 18:34:27;;;;;;;10.40;7.53;;;;;;;15.51;44.32;96525.31;8060227;29;20448;-74
2022/04/23 18:38:32;;;;;;;8.93;7.73;;;;;;;15.53;44.47;96518.19;8062151;29;20237;-75
2022/04/23 18:42:55;;;;;;;7.90;6.93;;;;;;;15.49;44.54;96517.63;8062094;29;20237;-75
2022/04/23 18:46:58;;;;;;;7.40;6.70;;;;;;;15.44;44.71;96515.44;8061741;29;20238;-75
2022/04/23 18:51:03;;;;;;;9.10;7.00;;;;;;;15.24;45.14;96511.94;8061818;29;20418;-74
2022/04/23 18:55:09;;;;;;;10.30;6.47;;;;;;;15.34;44.72;96511.94;8084816;29;20256;-74
2022/04/23 18:59:12;;;;;;;7.80;6.93;;;;;;;15.32;44.68;96515.66;8092295;29;20241;-74
2022/04/23 19:03:15;;;;;;;9.37;8.37;;;;;;;15.25;44.92;96510.16;8092439;29;20273;-74
2022/04/23 19:07:20;;;;;;;9.13;8.27;;;;;;;15.23;44.88;96509.44;8098003;29;20241;-75
2022/04/23 19:11:23;;;;;;;10.17;7.77;;;;;;;15.20;44.89;96507.13;8098537;29;20249;-75
2022/04/23 19:15:26;;;;;;;8.20;7.40;;;;;;;15.09;45.24;96500.22;8098687;29;20247;-75
2022/04/23 19:19:29;;;;;;;7.93;7.10;;;;;;;15.13;45.04;96495.56;8098421;29;20579;-75
2022/04/23 19:28:01;;;;;;;8.30;7.50;;;;;;;14.99;45.32;96489.75;8098427;29;20248;-74
2022/04/23 19:32:06;;;;;;;8.43;7.43;;;;;;;15.10;45.56;96486.25;8098460;29;20252;-75
2022/04/23 19:36:09;;;;;;;16.03;12.67;;;;;;;14.96;45.64;96494.41;8097465;29;20238;-75
2022/04/23 19:40:14;;;;;;;16.87;15.07;;;;;;;15.02;45.59;96484.28;8097304;29;20248;-74
2022/04/23 19:44:23;;;;;;;10.33;8.27;;;;;;;15.04;45.29;96487.59;8096452;29;20234;-74
2022/04/23 19:48:27;;;;;;;13.23;9.47;;;;;;;14.76;46.14;96481.28;8097007;29;20238;-75
2022/04/23 19:52:30;;;;;;;9.63;8.40;;;;;;;14.86;45.93;96474.34;8094485;29;20284;-75
2022/04/23 19:56:35;;;;;;;9.07;8.17;;;;;;;14.80;46.01;96474.03;8096759;29;20245;-75
2022/04/23 20:00:38;;;;;;;8.60;7.80;;;;;;;14.73;46.35;96462.50;8096734;29;20248;-74
2022/04/23 20:04:41;;;;;;;10.87;9.70;;;;;;;14.71;46.38;96465.22;8096530;29;20244;-75
2022/04/23 20:08:45;;;;;;;7.80;7.10;;;;;;;14.70;46.38;96467.94;8096506;29;20415;-74
2022/04/23 20:12:51;;;;;;;8.67;7.87;;;;;;;14.75;46.35;96471.00;8096336;29;20242;-75